sensor_id;sensor_type;location;lat;lon;timestamp;temperature;humidity
76211;DHT22;65003;49.518;11.280;2024-03-08T00:02:21;2.50;99.90
76211;DHT22;65003;49.518;11.280;2024-03-08T00:04:47;2.30;99.90
76211;DHT22;65003;49.518;11.280;2024-03-08T00:07:14;2.40;99.90
76211;DHT22;65003;49.518;11.280;2024-03-08T00:09:40;2.70;99.90
76211;DHT22;65003;49.518;11.280;2024-03-08T00:12:07;2.50;99.90
76211;DHT22;65003;49.518;11.280;2024-03-08T00:14:34;2.40;99.90
76211;DHT22;65003;49.518;11.280;2024-03-08T00:17:00;2.50;99.90
76211;DHT22;65003;49.518;11.280;2024-03-08T01:23:09;1.10;99.90
76211;DHT22;65003;49.518;11.280;2024-03-08T01:25:35;1.20;99.90
76211;DHT22;65003;49.518;11.280;2024-03-08T01:28:02;1.90;99.90
76211;DHT22;65003;49.518;11.280;2024-03-08T01:30:28;1.10;99.90
76211;DHT22;65003;49.518;11.280;2024-03-08T01:32:55;1.10;99.90
76211;DHT22;65003;49.518;11.280;2024-03-08T01:35:22;1.20;99.90
76211;DHT22;65003;49.518;11.280;2024-03-08T01:37:48;1.10;99.90
76211;DHT22;65003;49.518;11.280;2024-03-08T01:40:15;1.20;99.90
76211;DHT22;65003;49.518;11.280;2024-03-08T01:42:41;1.20;99.90
76211;DHT22;65003;49.518;11.280;2024-03-08T01:45:08;1.20;99.90
76211;DHT22;65003;49.518;11.280;2024-03-08T01:47:35;1.10;99.90
76211;DHT22;65003;49.518;11.280;2024-03-08T01:50:02;1.20;99.90
76211;DHT22;65003;49.518;11.280;2024-03-08T01:52:29;0.90;99.90
76211;DHT22;65003;49.518;11.280;2024-03-08T01:54:56;1.40;99.90
76211;DHT22;65003;49.518;11.280;2024-03-08T01:57:22;1.20;99.90
76211;DHT22;65003;49.518;11.280;2024-03-08T01:59:49;1.60;99.90
76211;DHT22;65003;49.518;11.280;2024-03-08T02:02:16;1.10;99.90
76211;DHT22;65003;49.518;11.280;2024-03-08T02:04:42;1.10;99.90
76211;DHT22;65003;49.518;11.280;2024-03-08T02:07:09;1.00;99.90
76211;DHT22;65003;49.518;11.280;2024-03-08T02:09:35;1.10;99.90
76211;DHT22;65003;49.518;11.280;2024-03-08T02:12:02;1.20;99.90
76211;DHT22;65003;49.518;11.280;2024-03-08T02:14:29;1.20;99.90
76211;DHT22;65003;49.518;11.280;2024-03-08T02:16:56;1.20;99.90
76211;DHT22;65003;49.518;11.280;2024-03-08T02:19:22;2.10;99.90
76211;DHT22;65003;49.518;11.280;2024-03-08T02:21:49;1.30;99.90
76211;DHT22;65003;49.518;11.280;2024-03-08T02:24:15;1.20;99.90
76211;DHT22;65003;49.518;11.280;2024-03-08T02:26:42;1.20;99.90
76211;DHT22;65003;49.518;11.280;2024-03-08T02:29:09;1.10;99.90
76211;DHT22;65003;49.518;11.280;2024-03-08T02:31:35;1.20;99.90
76211;DHT22;65003;49.518;11.280;2024-03-08T02:34:02;1.20;99.90
76211;DHT22;65003;49.518;11.280;2024-03-08T02:36:28;1.20;99.90
76211;DHT22;65003;49.518;11.280;2024-03-08T02:38:55;1.20;99.90
76211;DHT22;65003;49.518;11.280;2024-03-08T02:41:22;1.50;99.90
76211;DHT22;65003;49.518;11.280;2024-03-08T02:43:48;1.20;99.90
76211;DHT22;65003;49.518;11.280;2024-03-08T02:46:15;1.20;99.90
76211;DHT22;65003;49.518;11.280;2024-03-08T02:48:41;1.40;99.90
76211;DHT22;65003;49.518;11.280;2024-03-08T02:51:08;1.50;99.90
76211;DHT22;65003;49.518;11.280;2024-03-08T02:53:35;1.30;99.90
76211;DHT22;65003;49.518;11.280;2024-03-08T02:56:02;1.20;99.90
76211;DHT22;65003;49.518;11.280;2024-03-08T02:58:28;1.20;99.90
76211;DHT22;65003;49.518;11.280;2024-03-08T03:00:56;1.20;99.90
76211;DHT22;65003;49.518;11.280;2024-03-08T03:03:22;1.20;99.90
76211;DHT22;65003;49.518;11.280;2024-03-08T03:05:49;1.20;99.90
76211;DHT22;65003;49.518;11.280;2024-03-08T03:08:15;1.10;99.90
76211;DHT22;65003;49.518;11.280;2024-03-08T03:10:42;1.10;99.90
76211;DHT22;65003;49.518;11.280;2024-03-08T03:13:09;1.10;99.90
76211;DHT22;65003;49.518;11.280;2024-03-08T03:15:35;1.10;99.90
76211;DHT22;65003;49.518;11.280;2024-03-08T03:18:02;1.00;99.90
76211;DHT22;65003;49.518;11.280;2024-03-08T03:20:29;1.00;99.90
76211;DHT22;65003;49.518;11.280;2024-03-08T03:22:59;1.10;99.90
76211;DHT22;65003;49.518;11.280;2024-03-08T03:25:25;1.00;99.90
76211;DHT22;65003;49.518;11.280;2024-03-08T03:27:52;1.00;99.90
76211;DHT22;65003;49.518;11.280;2024-03-08T03:30:18;1.10;99.90
76211;DHT22;65003;49.518;11.280;2024-03-08T03:32:48;1.30;99.90
76211;DHT22;65003;49.518;11.280;2024-03-08T03:35:14;1.10;99.90
76211;DHT22;65003;49.518;11.280;2024-03-08T03:37:40;1.10;99.90
76211;DHT22;65003;49.518;11.280;2024-03-08T03:40:07;1.10;99.90
76211;DHT22;65003;49.518;11.280;2024-03-08T03:42:34;1.20;99.90
76211;DHT22;65003;49.518;11.280;2024-03-08T03:45:01;1.00;99.90
76211;DHT22;65003;49.518;11.280;2024-03-08T03:47:27;1.20;99.90
76211;DHT22;65003;49.518;11.280;2024-03-08T03:49:54;1.10;99.90
76211;DHT22;65003;49.518;11.280;2024-03-08T03:52:20;1.10;99.90
76211;DHT22;65003;49.518;11.280;2024-03-08T03:54:47;1.10;99.90
76211;DHT22;65003;49.518;11.280;2024-03-08T03:57:13;1.10;99.90
76211;DHT22;65003;49.518;11.280;2024-03-08T03:59:40;1.00;99.90
76211;DHT22;65003;49.518;11.280;2024-03-08T04:02:07;1.10;99.90
76211;DHT22;65003;49.518;11.280;2024-03-08T04:04:33;1.10;99.90
76211;DHT22;65003;49.518;11.280;2024-03-08T04:07:00;1.10;99.90
76211;DHT22;65003;49.518;11.280;2024-03-08T04:09:26;1.10;99.90
76211;DHT22;65003;49.518;11.280;2024-03-08T04:11:53;1.00;99.90
76211;DHT22;65003;49.518;11.280;2024-03-08T04:14:20;0.90;99.90
76211;DHT22;65003;49.518;11.280;2024-03-08T04:16:46;1.00;99.90
76211;DHT22;65003;49.518;11.280;2024-03-08T04:19:13;1.10;99.90
76211;DHT22;65003;49.518;11.280;2024-03-08T04:21:39;0.80;99.90
76211;DHT22;65003;49.518;11.280;2024-03-08T04:24:06;0.90;99.90
76211;DHT22;65003;49.518;11.280;2024-03-08T04:26:32;0.90;99.90
76211;DHT22;65003;49.518;11.280;2024-03-08T04:28:59;0.90;99.90
76211;DHT22;65003;49.518;11.280;2024-03-08T04:31:26;0.80;99.90
76211;DHT22;65003;49.518;11.280;2024-03-08T04:33:52;0.80;99.90
76211;DHT22;65003;49.518;11.280;2024-03-08T04:36:19;1.60;99.90
76211;DHT22;65003;49.518;11.280;2024-03-08T04:38:45;0.90;99.90
76211;DHT22;65003;49.518;11.280;2024-03-08T04:41:12;0.90;99.90
76211;DHT22;65003;49.518;11.280;2024-03-08T04:43:39;0.90;99.90
76211;DHT22;65003;49.518;11.280;2024-03-08T04:46:05;0.90;99.90
76211;DHT22;65003;49.518;11.280;2024-03-08T04:48:34;0.90;99.90
76211;DHT22;65003;49.518;11.280;2024-03-08T04:51:00;0.70;99.90
76211;DHT22;65003;49.518;11.280;2024-03-08T04:53:27;0.70;99.90
76211;DHT22;65003;49.518;11.280;2024-03-08T04:55:53;0.80;99.90
76211;DHT22;65003;49.518;11.280;2024-03-08T04:58:20;0.70;99.90
76211;DHT22;65003;49.518;11.280;2024-03-08T05:00:46;0.70;99.90
76211;DHT22;65003;49.518;11.280;2024-03-08T05:03:13;0.50;99.90
76211;DHT22;65003;49.518;11.280;2024-03-08T05:05:40;0.60;99.90
76211;DHT22;65003;49.518;11.280;2024-03-08T05:08:06;0.60;99.90
76211;DHT22;65003;49.518;11.280;2024-03-08T05:10:33;0.60;99.90
76211;DHT22;65003;49.518;11.280;2024-03-08T05:12:59;0.60;99.90
76211;DHT22;65003;49.518;11.280;2024-03-08T05:15:26;0.60;99.90
76211;DHT22;65003;49.518;11.280;2024-03-08T05:17:53;0.50;99.90
76211;DHT22;65003;49.518;11.280;2024-03-08T05:20:19;0.40;99.90
76211;DHT22;65003;49.518;11.280;2024-03-08T05:22:46;0.40;99.90
76211;DHT22;65003;49.518;11.280;2024-03-08T05:25:12;0.40;99.90
76211;DHT22;65003;49.518;11.280;2024-03-08T05:27:39;0.40;99.90
76211;DHT22;65003;49.518;11.280;2024-03-08T05:30:06;0.60;99.90
76211;DHT22;65003;49.518;11.280;2024-03-08T05:32:33;0.60;99.90
76211;DHT22;65003;49.518;11.280;2024-03-08T05:34:59;0.60;99.90
76211;DHT22;65003;49.518;11.280;2024-03-08T05:37:26;0.60;99.90
76211;DHT22;65003;49.518;11.280;2024-03-08T05:39:52;0.50;99.90
76211;DHT22;65003;49.518;11.280;2024-03-08T05:42:19;0.50;99.90
76211;DHT22;65003;49.518;11.280;2024-03-08T05:44:45;0.30;99.90
76211;DHT22;65003;49.518;11.280;2024-03-08T05:47:12;0.40;99.90
76211;DHT22;65003;49.518;11.280;2024-03-08T05:49:39;0.30;99.90
76211;DHT22;65003;49.518;11.280;2024-03-08T05:52:05;0.20;99.90
76211;DHT22;65003;49.518;11.280;2024-03-08T05:54:32;0.10;99.90
76211;DHT22;65003;49.518;11.280;2024-03-08T05:56:58;0.20;99.90
76211;DHT22;65003;49.518;11.280;2024-03-08T05:59:25;0.20;99.90
76211;DHT22;65003;49.518;11.280;2024-03-08T06:01:52;0.70;99.90
76211;DHT22;65003;49.518;11.280;2024-03-08T06:04:18;0.20;99.90
76211;DHT22;65003;49.518;11.280;2024-03-08T06:06:45;0.50;99.90
76211;DHT22;65003;49.518;11.280;2024-03-08T06:09:11;0.80;99.90
76211;DHT22;65003;49.518;11.280;2024-03-08T06:11:38;1.10;99.90
76211;DHT22;65003;49.518;11.280;2024-03-08T06:14:05;1.30;99.90
76211;DHT22;65003;49.518;11.280;2024-03-08T06:16:31;1.40;99.90
76211;DHT22;65003;49.518;11.280;2024-03-08T06:18:58;1.60;99.90
76211;DHT22;65003;49.518;11.280;2024-03-08T06:21:24;1.60;99.90
76211;DHT22;65003;49.518;11.280;2024-03-08T06:23:53;2.00;99.90
76211;DHT22;65003;49.518;11.280;2024-03-08T06:26:20;2.30;99.90
76211;DHT22;65003;49.518;11.280;2024-03-08T06:28:46;2.60;99.90
76211;DHT22;65003;49.518;11.280;2024-03-08T06:31:12;2.70;99.90
76211;DHT22;65003;49.518;11.280;2024-03-08T06:33:39;2.90;99.90
76211;DHT22;65003;49.518;11.280;2024-03-08T06:36:06;3.30;99.90
76211;DHT22;65003;49.518;11.280;2024-03-08T06:38:32;3.30;99.90
76211;DHT22;65003;49.518;11.280;2024-03-08T06:40:59;3.50;99.90
76211;DHT22;65003;49.518;11.280;2024-03-08T06:43:25;3.70;99.90
76211;DHT22;65003;49.518;11.280;2024-03-08T06:45:52;4.00;99.90
76211;DHT22;65003;49.518;11.280;2024-03-08T06:48:19;4.10;99.90
76211;DHT22;65003;49.518;11.280;2024-03-08T06:50:46;4.40;99.90
76211;DHT22;65003;49.518;11.280;2024-03-08T06:53:12;4.70;99.90
76211;DHT22;65003;49.518;11.280;2024-03-08T06:55:38;4.30;99.90
76211;DHT22;65003;49.518;11.280;2024-03-08T06:58:05;5.30;99.90
76211;DHT22;65003;49.518;11.280;2024-03-08T07:00:32;5.50;99.90
76211;DHT22;65003;49.518;11.280;2024-03-08T07:02:58;5.70;99.90
76211;DHT22;65003;49.518;11.280;2024-03-08T07:05:27;5.70;99.90
76211;DHT22;65003;49.518;11.280;2024-03-08T07:07:53;5.80;99.90
76211;DHT22;65003;49.518;11.280;2024-03-08T07:10:21;5.90;99.90
76211;DHT22;65003;49.518;11.280;2024-03-08T07:12:47;6.00;99.90
76211;DHT22;65003;49.518;11.280;2024-03-08T07:15:14;5.90;99.90
76211;DHT22;65003;49.518;11.280;2024-03-08T07:17:40;5.90;99.90
76211;DHT22;65003;49.518;11.280;2024-03-08T07:20:07;5.90;99.90
76211;DHT22;65003;49.518;11.280;2024-03-08T07:22:34;5.90;99.90
76211;DHT22;65003;49.518;11.280;2024-03-08T07:25:00;5.80;99.90
76211;DHT22;65003;49.518;11.280;2024-03-08T07:27:48;6.00;99.90
76211;DHT22;65003;49.518;11.280;2024-03-08T07:30:14;6.40;99.90
76211;DHT22;65003;49.518;11.280;2024-03-08T07:32:46;6.70;99.90
76211;DHT22;65003;49.518;11.280;2024-03-08T07:35:13;7.10;99.90
76211;DHT22;65003;49.518;11.280;2024-03-08T09:23:01;14.00;98.10
76211;DHT22;65003;49.518;11.280;2024-03-08T09:25:28;14.20;98.70
76211;DHT22;65003;49.518;11.280;2024-03-08T09:27:54;14.30;98.40
76211;DHT22;65003;49.518;11.280;2024-03-08T09:30:21;14.20;98.60
76211;DHT22;65003;49.518;11.280;2024-03-08T09:35:16;14.90;82.50
76211;DHT22;65003;49.518;11.280;2024-03-08T09:37:43;14.10;82.70
76211;DHT22;65003;49.518;11.280;2024-03-08T09:40:09;14.80;83.90
76211;DHT22;65003;49.518;11.280;2024-03-08T09:42:36;15.00;85.10
76211;DHT22;65003;49.518;11.280;2024-03-08T09:45:11;15.00;84.10
76211;DHT22;65003;49.518;11.280;2024-03-08T09:47:41;14.90;83.50
76211;DHT22;65003;49.518;11.280;2024-03-08T09:50:08;15.10;84.60
76211;DHT22;65003;49.518;11.280;2024-03-08T09:52:37;15.60;84.20
76211;DHT22;65003;49.518;11.280;2024-03-08T09:55:06;15.70;84.60
76211;DHT22;65003;49.518;11.280;2024-03-08T09:57:33;16.00;85.60
76211;DHT22;65003;49.518;11.280;2024-03-08T10:00:00;15.90;84.60
76211;DHT22;65003;49.518;11.280;2024-03-08T10:02:26;15.60;85.70
76211;DHT22;65003;49.518;11.280;2024-03-08T10:04:53;14.60;85.80
76211;DHT22;65003;49.518;11.280;2024-03-08T10:07:19;14.70;86.80
76211;DHT22;65003;49.518;11.280;2024-03-08T10:09:46;14.90;86.00
76211;DHT22;65003;49.518;11.280;2024-03-08T10:12:13;14.80;86.00
76211;DHT22;65003;49.518;11.280;2024-03-08T10:14:40;14.90;85.90
76211;DHT22;65003;49.518;11.280;2024-03-08T10:17:06;15.50;84.20
76211;DHT22;65003;49.518;11.280;2024-03-08T10:19:33;15.70;84.00
76211;DHT22;65003;49.518;11.280;2024-03-08T10:22:02;16.90;76.40
76211;DHT22;65003;49.518;11.280;2024-03-08T10:24:28;16.70;77.80
76211;DHT22;65003;49.518;11.280;2024-03-08T10:26:59;17.10;76.60
76211;DHT22;65003;49.518;11.280;2024-03-08T10:29:25;17.10;75.60
76211;DHT22;65003;49.518;11.280;2024-03-08T10:31:52;17.50;74.50
76211;DHT22;65003;49.518;11.280;2024-03-08T10:34:18;17.00;75.40
76211;DHT22;65003;49.518;11.280;2024-03-08T10:36:45;17.80;74.50
76211;DHT22;65003;49.518;11.280;2024-03-08T10:39:20;17.80;72.50
76211;DHT22;65003;49.518;11.280;2024-03-08T10:41:43;18.50;72.70
76211;DHT22;65003;49.518;11.280;2024-03-08T10:44:16;19.10;71.30
76211;DHT22;65003;49.518;11.280;2024-03-08T10:47:01;19.20;68.90
76211;DHT22;65003;49.518;11.280;2024-03-08T10:49:38;18.70;69.80
76211;DHT22;65003;49.518;11.280;2024-03-08T10:52:04;19.00;67.70
76211;DHT22;65003;49.518;11.280;2024-03-08T10:54:31;19.00;65.60
76211;DHT22;65003;49.518;11.280;2024-03-08T10:56:58;19.40;65.00
76211;DHT22;65003;49.518;11.280;2024-03-08T10:59:24;20.20;64.90
76211;DHT22;65003;49.518;11.280;2024-03-08T11:01:51;20.60;64.40
76211;DHT22;65003;49.518;11.280;2024-03-08T11:04:18;21.00;62.70
76211;DHT22;65003;49.518;11.280;2024-03-08T11:06:46;20.90;62.90
76211;DHT22;65003;49.518;11.280;2024-03-08T11:09:27;20.70;62.00
76211;DHT22;65003;49.518;11.280;2024-03-08T11:12:14;20.80;61.10
76211;DHT22;65003;49.518;11.280;2024-03-08T11:16:58;21.00;60.70
76211;DHT22;65003;49.518;11.280;2024-03-08T11:19:25;20.10;61.70
76211;DHT22;65003;49.518;11.280;2024-03-08T11:21:59;19.70;62.60
76211;DHT22;65003;49.518;11.280;2024-03-08T11:24:25;19.10;63.40
76211;DHT22;65003;49.518;11.280;2024-03-08T11:26:54;18.40;64.10
76211;DHT22;65003;49.518;11.280;2024-03-08T11:29:34;17.10;66.20
76211;DHT22;65003;49.518;11.280;2024-03-08T11:32:08;16.40;68.10
76211;DHT22;65003;49.518;11.280;2024-03-08T11:34:34;16.10;69.40
76211;DHT22;65003;49.518;11.280;2024-03-08T11:37:03;15.40;71.90
76211;DHT22;65003;49.518;11.280;2024-03-08T11:39:27;14.70;72.50
76211;DHT22;65003;49.518;11.280;2024-03-08T11:41:54;15.10;73.30
76211;DHT22;65003;49.518;11.280;2024-03-08T11:44:20;13.90;75.20
76211;DHT22;65003;49.518;11.280;2024-03-08T11:46:47;13.90;76.50
76211;DHT22;65003;49.518;11.280;2024-03-08T11:49:13;13.80;76.20
76211;DHT22;65003;49.518;11.280;2024-03-08T11:51:40;13.40;76.90
76211;DHT22;65003;49.518;11.280;2024-03-08T11:54:10;13.40;77.60
76211;DHT22;65003;49.518;11.280;2024-03-08T11:56:33;13.80;77.50
76211;DHT22;65003;49.518;11.280;2024-03-08T11:59:00;13.30;77.30
76211;DHT22;65003;49.518;11.280;2024-03-08T12:01:26;13.40;77.60
76211;DHT22;65003;49.518;11.280;2024-03-08T12:03:53;13.30;78.30
76211;DHT22;65003;49.518;11.280;2024-03-08T12:06:19;13.40;78.20
76211;DHT22;65003;49.518;11.280;2024-03-08T12:08:46;13.50;78.60
76211;DHT22;65003;49.518;11.280;2024-03-08T12:11:15;13.70;77.50
76211;DHT22;65003;49.518;11.280;2024-03-08T12:13:42;13.70;77.60
76211;DHT22;65003;49.518;11.280;2024-03-08T12:16:08;13.70;78.40
76211;DHT22;65003;49.518;11.280;2024-03-08T12:18:36;13.40;77.30
76211;DHT22;65003;49.518;11.280;2024-03-08T12:21:08;13.50;78.30
76211;DHT22;65003;49.518;11.280;2024-03-08T12:23:34;13.40;78.10
76211;DHT22;65003;49.518;11.280;2024-03-08T12:26:09;13.20;78.50
76211;DHT22;65003;49.518;11.280;2024-03-08T12:28:35;13.20;78.20
76211;DHT22;65003;49.518;11.280;2024-03-08T12:31:02;13.30;78.60
76211;DHT22;65003;49.518;11.280;2024-03-08T12:33:28;13.50;77.70
76211;DHT22;65003;49.518;11.280;2024-03-08T12:35:55;13.40;78.20
76211;DHT22;65003;49.518;11.280;2024-03-08T12:38:22;13.40;78.90
76211;DHT22;65003;49.518;11.280;2024-03-08T12:40:50;13.50;78.60
76211;DHT22;65003;49.518;11.280;2024-03-08T12:43:16;13.80;78.30
76211;DHT22;65003;49.518;11.280;2024-03-08T12:45:43;13.90;76.70
76211;DHT22;65003;49.518;11.280;2024-03-08T12:48:12;13.90;76.30
76211;DHT22;65003;49.518;11.280;2024-03-08T12:50:38;13.40;76.70
76211;DHT22;65003;49.518;11.280;2024-03-08T12:53:05;13.60;77.60
76211;DHT22;65003;49.518;11.280;2024-03-08T12:55:32;13.30;77.20
76211;DHT22;65003;49.518;11.280;2024-03-08T12:57:58;13.30;77.20
76211;DHT22;65003;49.518;11.280;2024-03-08T13:00:25;13.40;76.60
76211;DHT22;65003;49.518;11.280;2024-03-08T13:02:51;13.50;76.60
76211;DHT22;65003;49.518;11.280;2024-03-08T13:05:18;13.70;76.70
76211;DHT22;65003;49.518;11.280;2024-03-08T13:07:44;13.60;76.20
76211;DHT22;65003;49.518;11.280;2024-03-08T13:10:14;13.30;76.60
76211;DHT22;65003;49.518;11.280;2024-03-08T13:12:41;13.30;76.60
76211;DHT22;65003;49.518;11.280;2024-03-08T13:15:08;13.30;77.70
76211;DHT22;65003;49.518;11.280;2024-03-08T13:17:34;13.50;77.30
76211;DHT22;65003;49.518;11.280;2024-03-08T13:20:00;13.50;76.60
76211;DHT22;65003;49.518;11.280;2024-03-08T13:22:27;13.30;77.20
76211;DHT22;65003;49.518;11.280;2024-03-08T13:24:54;13.20;78.00
76211;DHT22;65003;49.518;11.280;2024-03-08T13:27:20;13.30;77.60
76211;DHT22;65003;49.518;11.280;2024-03-08T13:29:47;13.20;77.60
76211;DHT22;65003;49.518;11.280;2024-03-08T13:32:14;13.20;77.50
76211;DHT22;65003;49.518;11.280;2024-03-08T13:34:41;13.60;76.80
76211;DHT22;65003;49.518;11.280;2024-03-08T13:37:07;13.50;76.30
76211;DHT22;65003;49.518;11.280;2024-03-08T13:39:34;13.40;76.40
76211;DHT22;65003;49.518;11.280;2024-03-08T13:42:01;13.20;76.70
76211;DHT22;65003;49.518;11.280;2024-03-08T13:44:27;13.20;77.70
76211;DHT22;65003;49.518;11.280;2024-03-08T13:46:54;13.10;77.80
76211;DHT22;65003;49.518;11.280;2024-03-08T13:49:20;13.00;77.90
76211;DHT22;65003;49.518;11.280;2024-03-08T13:51:47;12.90;78.50
76211;DHT22;65003;49.518;11.280;2024-03-08T13:54:13;12.80;78.60
76211;DHT22;65003;49.518;11.280;2024-03-08T13:56:40;12.80;78.80
76211;DHT22;65003;49.518;11.280;2024-03-08T13:59:07;12.90;78.80
76211;DHT22;65003;49.518;11.280;2024-03-08T14:01:33;13.10;78.00
76211;DHT22;65003;49.518;11.280;2024-03-08T14:04:00;12.80;77.30
76211;DHT22;65003;49.518;11.280;2024-03-08T14:06:26;13.10;77.60
76211;DHT22;65003;49.518;11.280;2024-03-08T14:08:53;13.00;78.30
76211;DHT22;65003;49.518;11.280;2024-03-08T14:11:20;12.80;78.00
76211;DHT22;65003;49.518;11.280;2024-03-08T14:13:46;12.90;78.70
76211;DHT22;65003;49.518;11.280;2024-03-08T14:16:13;12.80;79.90
76211;DHT22;65003;49.518;11.280;2024-03-08T14:18:39;12.70;79.60
76211;DHT22;65003;49.518;11.280;2024-03-08T14:21:06;12.70;79.70
76211;DHT22;65003;49.518;11.280;2024-03-08T14:23:35;12.80;79.70
76211;DHT22;65003;49.518;11.280;2024-03-08T14:26:03;12.60;79.60
76211;DHT22;65003;49.518;11.280;2024-03-08T14:28:29;12.50;80.00
76211;DHT22;65003;49.518;11.280;2024-03-08T14:30:55;12.70;80.40
76211;DHT22;65003;49.518;11.280;2024-03-08T14:33:22;12.60;81.10
76211;DHT22;65003;49.518;11.280;2024-03-08T14:35:48;12.60;80.50
76211;DHT22;65003;49.518;11.280;2024-03-08T14:38:15;12.60;81.00
76211;DHT22;65003;49.518;11.280;2024-03-08T14:40:42;12.40;80.80
76211;DHT22;65003;49.518;11.280;2024-03-08T14:43:08;12.30;81.60
76211;DHT22;65003;49.518;11.280;2024-03-08T14:45:35;12.20;81.90
76211;DHT22;65003;49.518;11.280;2024-03-08T14:48:01;12.20;81.80
76211;DHT22;65003;49.518;11.280;2024-03-08T14:50:28;12.10;81.70
76211;DHT22;65003;49.518;11.280;2024-03-08T14:52:55;11.20;81.60
76211;DHT22;65003;49.518;11.280;2024-03-08T14:55:21;12.00;82.40
76211;DHT22;65003;49.518;11.280;2024-03-08T14:57:49;12.00;82.60
76211;DHT22;65003;49.518;11.280;2024-03-08T15:00:15;12.00;82.70
76211;DHT22;65003;49.518;11.280;2024-03-08T15:02:43;11.70;82.60
76211;DHT22;65003;49.518;11.280;2024-03-08T15:05:09;11.80;82.80
76211;DHT22;65003;49.518;11.280;2024-03-08T15:07:35;10.90;82.20
76211;DHT22;65003;49.518;11.280;2024-03-08T15:10:02;11.70;83.60
76211;DHT22;65003;49.518;11.280;2024-03-08T15:12:28;11.50;83.90
76211;DHT22;65003;49.518;11.280;2024-03-08T15:14:55;11.50;84.70
76211;DHT22;65003;49.518;11.280;2024-03-08T15:17:22;11.40;85.50
76211;DHT22;65003;49.518;11.280;2024-03-08T15:19:48;11.20;86.20
76211;DHT22;65003;49.518;11.280;2024-03-08T15:22:15;11.20;87.70
76211;DHT22;65003;49.518;11.280;2024-03-08T15:24:41;11.60;87.90
76211;DHT22;65003;49.518;11.280;2024-03-08T15:27:08;11.20;87.70
76211;DHT22;65003;49.518;11.280;2024-03-08T15:29:36;11.30;87.70
76211;DHT22;65003;49.518;11.280;2024-03-08T15:32:02;11.30;87.30
76211;DHT22;65003;49.518;11.280;2024-03-08T15:34:29;11.20;88.30
76211;DHT22;65003;49.518;11.280;2024-03-08T15:36:55;11.10;88.70
76211;DHT22;65003;49.518;11.280;2024-03-08T15:39:22;11.00;89.50
76211;DHT22;65003;49.518;11.280;2024-03-08T15:41:48;10.90;90.00
76211;DHT22;65003;49.518;11.280;2024-03-08T15:44:15;11.30;90.10
76211;DHT22;65003;49.518;11.280;2024-03-08T15:46:42;10.90;90.00
76211;DHT22;65003;49.518;11.280;2024-03-08T15:49:08;10.80;90.20
76211;DHT22;65003;49.518;11.280;2024-03-08T15:51:35;10.70;90.40
76211;DHT22;65003;49.518;11.280;2024-03-08T15:54:02;10.90;91.00
76211;DHT22;65003;49.518;11.280;2024-03-08T15:56:28;10.50;90.70
76211;DHT22;65003;49.518;11.280;2024-03-08T15:58:55;10.50;90.80
76211;DHT22;65003;49.518;11.280;2024-03-08T16:01:21;10.40;91.00
76211;DHT22;65003;49.518;11.280;2024-03-08T16:03:48;10.40;91.30
76211;DHT22;65003;49.518;11.280;2024-03-08T16:06:15;10.60;91.70
76211;DHT22;65003;49.518;11.280;2024-03-08T16:08:41;10.30;92.10
76211;DHT22;65003;49.518;11.280;2024-03-08T16:11:08;10.20;92.00
76211;DHT22;65003;49.518;11.280;2024-03-08T16:13:35;10.10;92.00
76211;DHT22;65003;49.518;11.280;2024-03-08T16:16:02;10.10;92.10
76211;DHT22;65003;49.518;11.280;2024-03-08T16:18:29;10.10;92.10
76211;DHT22;65003;49.518;11.280;2024-03-08T16:20:55;10.00;92.10
76211;DHT22;65003;49.518;11.280;2024-03-08T16:23:23;9.90;92.30
76211;DHT22;65003;49.518;11.280;2024-03-08T16:25:49;10.00;92.50
76211;DHT22;65003;49.518;11.280;2024-03-08T16:28:15;9.90;92.90
76211;DHT22;65003;49.518;11.280;2024-03-08T16:30:43;9.80;93.20
76211;DHT22;65003;49.518;11.280;2024-03-08T16:33:08;9.60;93.40
76211;DHT22;65003;49.518;11.280;2024-03-08T16:35:35;9.70;93.70
76211;DHT22;65003;49.518;11.280;2024-03-08T16:38:02;9.40;93.90
76211;DHT22;65003;49.518;11.280;2024-03-08T16:40:29;9.50;93.80
76211;DHT22;65003;49.518;11.280;2024-03-08T16:42:55;9.40;94.20
76211;DHT22;65003;49.518;11.280;2024-03-08T16:45:23;9.40;94.40
76211;DHT22;65003;49.518;11.280;2024-03-08T16:47:49;9.30;94.50
76211;DHT22;65003;49.518;11.280;2024-03-08T16:50:16;9.20;94.30
76211;DHT22;65003;49.518;11.280;2024-03-08T16:52:43;9.10;94.50
76211;DHT22;65003;49.518;11.280;2024-03-08T16:55:10;9.60;94.70
76211;DHT22;65003;49.518;11.280;2024-03-08T16:57:43;8.90;94.70
76211;DHT22;65003;49.518;11.280;2024-03-08T17:00:16;9.00;94.80
76211;DHT22;65003;49.518;11.280;2024-03-08T17:02:45;8.90;94.80
76211;DHT22;65003;49.518;11.280;2024-03-08T17:05:11;8.80;94.90
76211;DHT22;65003;49.518;11.280;2024-03-08T17:07:39;8.80;94.90
76211;DHT22;65003;49.518;11.280;2024-03-08T17:10:05;8.70;94.90
76211;DHT22;65003;49.518;11.280;2024-03-08T17:12:32;8.80;95.20
76211;DHT22;65003;49.518;11.280;2024-03-08T17:14:58;8.60;95.20
76211;DHT22;65003;49.518;11.280;2024-03-08T17:17:25;8.50;95.50
76211;DHT22;65003;49.518;11.280;2024-03-08T17:19:51;8.50;95.40
76211;DHT22;65003;49.518;11.280;2024-03-08T17:22:18;8.40;95.70
76211;DHT22;65003;49.518;11.280;2024-03-08T17:24:44;8.40;95.80
76211;DHT22;65003;49.518;11.280;2024-03-08T17:27:11;8.30;96.20
76211;DHT22;65003;49.518;11.280;2024-03-08T17:29:38;8.20;96.50
76211;DHT22;65003;49.518;11.280;2024-03-08T17:32:05;8.10;96.60
76211;DHT22;65003;49.518;11.280;2024-03-08T17:34:31;8.10;96.60
76211;DHT22;65003;49.518;11.280;2024-03-08T17:36:58;8.00;96.50
76211;DHT22;65003;49.518;11.280;2024-03-08T17:39:24;8.00;96.70
76211;DHT22;65003;49.518;11.280;2024-03-08T17:41:52;8.00;96.70
76211;DHT22;65003;49.518;11.280;2024-03-08T17:44:19;7.90;97.00
76211;DHT22;65003;49.518;11.280;2024-03-08T17:46:45;7.90;97.00
76211;DHT22;65003;49.518;11.280;2024-03-08T17:49:12;7.70;97.60
76211;DHT22;65003;49.518;11.280;2024-03-08T17:51:38;7.70;98.00
76211;DHT22;65003;49.518;11.280;2024-03-08T17:54:06;7.60;98.00
76211;DHT22;65003;49.518;11.280;2024-03-08T17:56:32;8.20;98.40
76211;DHT22;65003;49.518;11.280;2024-03-08T17:58:58;7.60;98.30
76211;DHT22;65003;49.518;11.280;2024-03-08T18:01:25;7.40;98.30
76211;DHT22;65003;49.518;11.280;2024-03-08T18:03:51;7.40;98.50
76211;DHT22;65003;49.518;11.280;2024-03-08T18:06:18;7.40;98.60
76211;DHT22;65003;49.518;11.280;2024-03-08T18:08:44;7.30;98.60
76211;DHT22;65003;49.518;11.280;2024-03-08T18:11:11;7.20;99.00
76211;DHT22;65003;49.518;11.280;2024-03-08T18:13:37;7.10;99.40
76211;DHT22;65003;49.518;11.280;2024-03-08T18:16:04;7.20;99.50
76211;DHT22;65003;49.518;11.280;2024-03-08T18:18:31;7.20;99.90